sensor_id;sensor_type;location;lat;lon;timestamp;P1;durP1;ratioP1;P2;durP2;ratioP2
19733;SDS011;10018;51.230;7.860;2023-03-25T00:01:00;1.20;;;0.80;;
19733;SDS011;10018;51.230;7.860;2023-03-25T00:03:29;4.20;;;1.10;;
19733;SDS011;10018;51.230;7.860;2023-03-25T00:05:59;3.37;;;0.90;;
19733;SDS011;10018;51.230;7.860;2023-03-25T00:08:28;2.80;;;0.70;;
19733;SDS011;10018;51.230;7.860;2023-03-25T00:10:54;2.00;;;0.90;;
19733;SDS011;10018;51.230;7.860;2023-03-25T00:13:22;1.70;;;0.70;;
19733;SDS011;10018;51.230;7.860;2023-03-25T00:15:48;2.03;;;1.00;;
19733;SDS011;10018;51.230;7.860;2023-03-25T00:18:17;2.17;;;0.87;;
19733;SDS011;10018;51.230;7.860;2023-03-25T00:20:44;2.57;;;0.90;;
19733;SDS011;10018;51.230;7.860;2023-03-25T00:23:13;2.77;;;1.00;;
19733;SDS011;10018;51.230;7.860;2023-03-25T00:25:40;2.27;;;1.00;;
19733;SDS011;10018;51.230;7.860;2023-03-25T00:28:11;3.50;;;1.10;;
19733;SDS011;10018;51.230;7.860;2023-03-25T00:30:40;4.27;;;0.90;;
19733;SDS011;10018;51.230;7.860;2023-03-25T00:33:07;2.63;;;1.07;;
19733;SDS011;10018;51.230;7.860;2023-03-25T00:35:40;3.40;;;0.87;;
19733;SDS011;10018;51.230;7.860;2023-03-25T00:38:11;1.47;;;0.80;;
19733;SDS011;10018;51.230;7.860;2023-03-25T00:40:38;2.63;;;0.90;;
19733;SDS011;10018;51.230;7.860;2023-03-25T00:43:05;3.70;;;0.70;;
19733;SDS011;10018;51.230;7.860;2023-03-25T00:45:31;2.93;;;0.70;;
19733;SDS011;10018;51.230;7.860;2023-03-25T00:47:57;1.87;;;0.70;;
19733;SDS011;10018;51.230;7.860;2023-03-25T00:50:23;1.73;;;0.80;;
19733;SDS011;10018;51.230;7.860;2023-03-25T00:52:51;1.53;;;0.90;;
19733;SDS011;10018;51.230;7.860;2023-03-25T00:55:20;2.50;;;1.10;;
19733;SDS011;10018;51.230;7.860;2023-03-25T00:57:46;4.17;;;1.20;;
19733;SDS011;10018;51.230;7.860;2023-03-25T01:00:13;2.33;;;1.27;;
19733;SDS011;10018;51.230;7.860;2023-03-25T01:02:40;2.70;;;1.20;;
19733;SDS011;10018;51.230;7.860;2023-03-25T01:05:07;6.20;;;1.50;;
19733;SDS011;10018;51.230;7.860;2023-03-25T01:07:34;4.03;;;1.37;;
19733;SDS011;10018;51.230;7.860;2023-03-25T01:10:05;2.93;;;1.33;;
19733;SDS011;10018;51.230;7.860;2023-03-25T01:12:32;5.73;;;1.47;;
19733;SDS011;10018;51.230;7.860;2023-03-25T01:14:58;4.30;;;1.60;;
19733;SDS011;10018;51.230;7.860;2023-03-25T01:17:23;6.53;;;1.50;;
19733;SDS011;10018;51.230;7.860;2023-03-25T01:19:49;3.53;;;1.50;;
19733;SDS011;10018;51.230;7.860;2023-03-25T01:22:15;3.90;;;1.30;;
19733;SDS011;10018;51.230;7.860;2023-03-25T01:24:40;4.43;;;1.30;;
19733;SDS011;10018;51.230;7.860;2023-03-25T01:27:06;9.70;;;1.30;;
19733;SDS011;10018;51.230;7.860;2023-03-25T01:29:31;5.70;;;1.27;;
19733;SDS011;10018;51.230;7.860;2023-03-25T01:31:57;4.50;;;1.13;;
19733;SDS011;10018;51.230;7.860;2023-03-25T01:34:23;2.30;;;1.13;;
19733;SDS011;10018;51.230;7.860;2023-03-25T01:36:49;4.17;;;1.30;;
19733;SDS011;10018;51.230;7.860;2023-03-25T01:39:16;3.73;;;1.10;;
19733;SDS011;10018;51.230;7.860;2023-03-25T01:41:43;5.37;;;1.10;;
19733;SDS011;10018;51.230;7.860;2023-03-25T01:46:39;4.90;;;1.00;;
19733;SDS011;10018;51.230;7.860;2023-03-25T01:49:10;2.80;;;1.00;;
19733;SDS011;10018;51.230;7.860;2023-03-25T01:51:42;4.87;;;1.37;;
19733;SDS011;10018;51.230;7.860;2023-03-25T01:54:12;5.40;;;1.23;;
19733;SDS011;10018;51.230;7.860;2023-03-25T01:56:41;9.83;;;1.30;;
19733;SDS011;10018;51.230;7.860;2023-03-25T01:59:10;5.93;;;1.30;;
19733;SDS011;10018;51.230;7.860;2023-03-25T02:01:42;3.40;;;1.00;;
19733;SDS011;10018;51.230;7.860;2023-03-25T02:04:09;4.03;;;1.10;;
19733;SDS011;10018;51.230;7.860;2023-03-25T02:09:05;5.03;;;1.30;;
19733;SDS011;10018;51.230;7.860;2023-03-25T02:11:35;4.33;;;1.47;;
19733;SDS011;10018;51.230;7.860;2023-03-25T02:14:02;3.87;;;1.30;;
19733;SDS011;10018;51.230;7.860;2023-03-25T02:16:34;6.47;;;1.43;;
19733;SDS011;10018;51.230;7.860;2023-03-25T02:24:43;7.10;;;1.43;;
19733;SDS011;10018;51.230;7.860;2023-03-25T02:27:22;5.40;;;1.50;;
19733;SDS011;10018;51.230;7.860;2023-03-25T02:35:59;4.70;;;1.47;;
19733;SDS011;10018;51.230;7.860;2023-03-25T02:44:13;8.87;;;1.70;;
19733;SDS011;10018;51.230;7.860;2023-03-25T02:46:53;5.17;;;1.40;;
19733;SDS011;10018;51.230;7.860;2023-03-25T02:51:58;2.77;;;1.10;;
19733;SDS011;10018;51.230;7.860;2023-03-25T02:54:35;3.80;;;1.13;;
19733;SDS011;10018;51.230;7.860;2023-03-25T02:57:03;4.90;;;1.30;;
19733;SDS011;10018;51.230;7.860;2023-03-25T02:59:31;6.07;;;1.60;;
19733;SDS011;10018;51.230;7.860;2023-03-25T03:01:58;4.40;;;1.30;;
19733;SDS011;10018;51.230;7.860;2023-03-25T03:04:27;7.37;;;1.63;;
19733;SDS011;10018;51.230;7.860;2023-03-25T03:06:53;4.73;;;1.40;;
19733;SDS011;10018;51.230;7.860;2023-03-25T03:12:07;3.40;;;1.10;;
19733;SDS011;10018;51.230;7.860;2023-03-25T03:17:26;3.10;;;0.80;;
19733;SDS011;10018;51.230;7.860;2023-03-25T03:33:56;2.60;;;0.90;;
19733;SDS011;10018;51.230;7.860;2023-03-25T03:36:30;3.80;;;0.70;;
19733;SDS011;10018;51.230;7.860;2023-03-25T03:39:02;2.90;;;0.63;;
19733;SDS011;10018;51.230;7.860;2023-03-25T03:41:33;2.40;;;0.90;;
19733;SDS011;10018;51.230;7.860;2023-03-25T03:44:08;3.97;;;1.00;;
19733;SDS011;10018;51.230;7.860;2023-03-25T03:46:38;2.53;;;0.80;;
19733;SDS011;10018;51.230;7.860;2023-03-25T03:49:28;4.17;;;1.10;;
19733;SDS011;10018;51.230;7.860;2023-03-25T03:52:12;3.83;;;1.20;;
19733;SDS011;10018;51.230;7.860;2023-03-25T03:54:49;4.50;;;1.30;;
19733;SDS011;10018;51.230;7.860;2023-03-25T03:59:58;7.27;;;1.70;;
19733;SDS011;10018;51.230;7.860;2023-03-25T04:02:45;2.60;;;1.23;;
19733;SDS011;10018;51.230;7.860;2023-03-25T04:05:15;3.53;;;1.27;;
19733;SDS011;10018;51.230;7.860;2023-03-25T04:07:47;5.80;;;1.23;;
19733;SDS011;10018;51.230;7.860;2023-03-25T04:13:11;5.47;;;1.57;;
19733;SDS011;10018;51.230;7.860;2023-03-25T04:15:41;5.37;;;1.60;;
19733;SDS011;10018;51.230;7.860;2023-03-25T04:18:07;5.57;;;1.47;;
19733;SDS011;10018;51.230;7.860;2023-03-25T04:20:33;8.37;;;1.63;;
19733;SDS011;10018;51.230;7.860;2023-03-25T04:23:00;4.57;;;1.43;;
19733;SDS011;10018;51.230;7.860;2023-03-25T04:25:29;3.47;;;1.40;;
19733;SDS011;10018;51.230;7.860;2023-03-25T04:28:12;6.47;;;1.60;;
19733;SDS011;10018;51.230;7.860;2023-03-25T04:30:38;6.27;;;1.70;;
19733;SDS011;10018;51.230;7.860;2023-03-25T04:33:04;6.17;;;1.53;;
19733;SDS011;10018;51.230;7.860;2023-03-25T04:35:31;6.63;;;1.70;;
19733;SDS011;10018;51.230;7.860;2023-03-25T04:37:57;5.07;;;1.73;;
19733;SDS011;10018;51.230;7.860;2023-03-25T04:40:23;6.67;;;1.70;;
19733;SDS011;10018;51.230;7.860;2023-03-25T04:42:49;6.60;;;1.93;;
19733;SDS011;10018;51.230;7.860;2023-03-25T04:45:17;6.50;;;2.10;;
19733;SDS011;10018;51.230;7.860;2023-03-25T04:47:47;7.70;;;2.57;;
19733;SDS011;10018;51.230;7.860;2023-03-25T04:50:25;6.10;;;2.00;;
19733;SDS011;10018;51.230;7.860;2023-03-25T04:52:52;7.40;;;2.20;;
19733;SDS011;10018;51.230;7.860;2023-03-25T04:55:19;8.83;;;2.20;;
19733;SDS011;10018;51.230;7.860;2023-03-25T04:57:45;5.70;;;1.97;;
19733;SDS011;10018;51.230;7.860;2023-03-25T05:00:13;5.63;;;1.83;;
19733;SDS011;10018;51.230;7.860;2023-03-25T05:02:44;6.57;;;2.10;;
19733;SDS011;10018;51.230;7.860;2023-03-25T05:05:12;7.00;;;2.03;;
19733;SDS011;10018;51.230;7.860;2023-03-25T05:07:42;5.67;;;1.70;;
19733;SDS011;10018;51.230;7.860;2023-03-25T05:10:13;5.80;;;1.73;;
19733;SDS011;10018;51.230;7.860;2023-03-25T05:12:40;7.37;;;1.53;;
19733;SDS011;10018;51.230;7.860;2023-03-25T05:15:07;9.13;;;2.03;;
19733;SDS011;10018;51.230;7.860;2023-03-25T05:17:33;7.83;;;1.60;;
19733;SDS011;10018;51.230;7.860;2023-03-25T05:19:59;4.43;;;1.50;;
19733;SDS011;10018;51.230;7.860;2023-03-25T05:22:24;7.40;;;1.87;;
19733;SDS011;10018;51.230;7.860;2023-03-25T05:24:50;5.10;;;1.67;;
19733;SDS011;10018;51.230;7.860;2023-03-25T05:27:18;6.37;;;1.43;;
19733;SDS011;10018;51.230;7.860;2023-03-25T05:29:46;12.10;;;1.80;;
19733;SDS011;10018;51.230;7.860;2023-03-25T05:32:12;7.90;;;1.30;;
19733;SDS011;10018;51.230;7.860;2023-03-25T05:34:41;4.90;;;1.40;;
19733;SDS011;10018;51.230;7.860;2023-03-25T05:37:10;5.30;;;1.60;;
19733;SDS011;10018;51.230;7.860;2023-03-25T05:39:40;5.77;;;1.10;;
19733;SDS011;10018;51.230;7.860;2023-03-25T05:42:11;4.47;;;1.43;;
19733;SDS011;10018;51.230;7.860;2023-03-25T05:44:39;5.03;;;1.20;;
19733;SDS011;10018;51.230;7.860;2023-03-25T05:47:11;5.13;;;1.30;;
19733;SDS011;10018;51.230;7.860;2023-03-25T05:49:37;5.00;;;1.10;;
19733;SDS011;10018;51.230;7.860;2023-03-25T05:52:06;3.70;;;1.10;;
19733;SDS011;10018;51.230;7.860;2023-03-25T05:54:36;6.27;;;1.20;;
19733;SDS011;10018;51.230;7.860;2023-03-25T05:57:07;7.43;;;1.47;;
19733;SDS011;10018;51.230;7.860;2023-03-25T05:59:35;7.03;;;1.30;;
19733;SDS011;10018;51.230;7.860;2023-03-25T06:02:05;6.30;;;1.77;;
19733;SDS011;10018;51.230;7.860;2023-03-25T06:04:34;6.07;;;1.10;;
19733;SDS011;10018;51.230;7.860;2023-03-25T06:07:05;5.23;;;1.40;;
19733;SDS011;10018;51.230;7.860;2023-03-25T06:09:38;3.60;;;1.30;;
19733;SDS011;10018;51.230;7.860;2023-03-25T06:12:10;3.87;;;1.17;;
19733;SDS011;10018;51.230;7.860;2023-03-25T06:14:37;6.40;;;1.30;;
19733;SDS011;10018;51.230;7.860;2023-03-25T06:17:06;3.87;;;1.30;;
19733;SDS011;10018;51.230;7.860;2023-03-25T06:19:35;5.37;;;1.20;;
19733;SDS011;10018;51.230;7.860;2023-03-25T06:22:10;6.37;;;1.20;;
19733;SDS011;10018;51.230;7.860;2023-03-25T06:24:39;5.93;;;1.30;;
19733;SDS011;10018;51.230;7.860;2023-03-25T06:27:06;3.47;;;1.20;;
19733;SDS011;10018;51.230;7.860;2023-03-25T06:29:35;5.33;;;1.00;;
19733;SDS011;10018;51.230;7.860;2023-03-25T06:32:11;4.77;;;1.30;;
19733;SDS011;10018;51.230;7.860;2023-03-25T06:34:37;4.17;;;1.50;;
19733;SDS011;10018;51.230;7.860;2023-03-25T06:37:06;5.03;;;1.20;;
19733;SDS011;10018;51.230;7.860;2023-03-25T06:39:33;4.57;;;1.20;;
19733;SDS011;10018;51.230;7.860;2023-03-25T06:42:02;5.17;;;1.10;;
19733;SDS011;10018;51.230;7.860;2023-03-25T06:44:29;3.67;;;1.13;;
19733;SDS011;10018;51.230;7.860;2023-03-25T06:46:54;3.30;;;1.07;;
19733;SDS011;10018;51.230;7.860;2023-03-25T06:49:20;6.37;;;1.30;;
19733;SDS011;10018;51.230;7.860;2023-03-25T06:51:46;7.60;;;1.17;;
19733;SDS011;10018;51.230;7.860;2023-03-25T06:54:11;5.80;;;1.10;;
19733;SDS011;10018;51.230;7.860;2023-03-25T06:56:37;5.97;;;1.20;;
19733;SDS011;10018;51.230;7.860;2023-03-25T06:59:05;4.00;;;1.10;;
19733;SDS011;10018;51.230;7.860;2023-03-25T07:01:30;5.03;;;1.40;;
19733;SDS011;10018;51.230;7.860;2023-03-25T07:03:56;5.87;;;1.60;;
19733;SDS011;10018;51.230;7.860;2023-03-25T07:06:24;6.87;;;1.33;;
19733;SDS011;10018;51.230;7.860;2023-03-25T07:08:50;4.07;;;1.20;;
19733;SDS011;10018;51.230;7.860;2023-03-25T07:11:18;6.67;;;1.10;;
19733;SDS011;10018;51.230;7.860;2023-03-25T07:13:49;4.80;;;1.20;;
19733;SDS011;10018;51.230;7.860;2023-03-25T07:16:17;7.20;;;1.10;;
19733;SDS011;10018;51.230;7.860;2023-03-25T07:18:44;5.77;;;1.20;;
19733;SDS011;10018;51.230;7.860;2023-03-25T07:21:10;4.03;;;0.80;;
19733;SDS011;10018;51.230;7.860;2023-03-25T07:23:38;3.20;;;1.00;;
19733;SDS011;10018;51.230;7.860;2023-03-25T07:26:04;4.20;;;1.27;;
19733;SDS011;10018;51.230;7.860;2023-03-25T07:28:30;3.33;;;0.80;;
19733;SDS011;10018;51.230;7.860;2023-03-25T07:30:55;2.47;;;0.97;;
19733;SDS011;10018;51.230;7.860;2023-03-25T07:33:21;4.97;;;0.97;;
19733;SDS011;10018;51.230;7.860;2023-03-25T07:35:46;4.23;;;1.20;;
19733;SDS011;10018;51.230;7.860;2023-03-25T07:38:14;3.73;;;1.03;;
19733;SDS011;10018;51.230;7.860;2023-03-25T07:40:40;2.63;;;0.90;;
19733;SDS011;10018;51.230;7.860;2023-03-25T07:43:05;2.77;;;0.70;;
19733;SDS011;10018;51.230;7.860;2023-03-25T07:45:31;3.10;;;1.00;;
19733;SDS011;10018;51.230;7.860;2023-03-25T07:47:58;3.53;;;0.90;;
19733;SDS011;10018;51.230;7.860;2023-03-25T07:50:25;3.17;;;1.00;;
19733;SDS011;10018;51.230;7.860;2023-03-25T07:52:50;4.93;;;1.20;;
19733;SDS011;10018;51.230;7.860;2023-03-25T07:55:20;4.80;;;1.40;;
19733;SDS011;10018;51.230;7.860;2023-03-25T07:57:45;7.07;;;1.33;;
19733;SDS011;10018;51.230;7.860;2023-03-25T08:00:11;4.87;;;1.30;;
19733;SDS011;10018;51.230;7.860;2023-03-25T08:02:37;7.07;;;1.40;;
19733;SDS011;10018;51.230;7.860;2023-03-25T08:05:03;6.00;;;1.43;;
19733;SDS011;10018;51.230;7.860;2023-03-25T08:07:31;6.37;;;1.40;;
19733;SDS011;10018;51.230;7.860;2023-03-25T08:09:57;7.27;;;1.40;;
19733;SDS011;10018;51.230;7.860;2023-03-25T08:12:24;8.00;;;1.30;;
19733;SDS011;10018;51.230;7.860;2023-03-25T08:14:50;6.33;;;1.70;;
19733;SDS011;10018;51.230;7.860;2023-03-25T08:17:16;6.73;;;1.77;;
19733;SDS011;10018;51.230;7.860;2023-03-25T08:19:41;9.50;;;2.20;;
19733;SDS011;10018;51.230;7.860;2023-03-25T08:22:07;7.20;;;1.80;;
19733;SDS011;10018;51.230;7.860;2023-03-25T08:24:33;7.73;;;1.80;;
19733;SDS011;10018;51.230;7.860;2023-03-25T08:26:58;8.67;;;1.97;;
19733;SDS011;10018;51.230;7.860;2023-03-25T08:29:29;6.20;;;1.70;;
19733;SDS011;10018;51.230;7.860;2023-03-25T08:31:58;8.83;;;2.47;;
19733;SDS011;10018;51.230;7.860;2023-03-25T08:34:24;8.30;;;2.00;;
19733;SDS011;10018;51.230;7.860;2023-03-25T08:36:52;7.93;;;2.10;;
19733;SDS011;10018;51.230;7.860;2023-03-25T08:39:17;5.67;;;2.00;;
19733;SDS011;10018;51.230;7.860;2023-03-25T08:41:43;8.80;;;1.90;;
19733;SDS011;10018;51.230;7.860;2023-03-25T08:44:09;9.10;;;2.07;;
19733;SDS011;10018;51.230;7.860;2023-03-25T08:46:35;6.10;;;1.80;;
19733;SDS011;10018;51.230;7.860;2023-03-25T08:49:02;7.60;;;1.83;;
19733;SDS011;10018;51.230;7.860;2023-03-25T08:51:29;11.47;;;1.80;;
19733;SDS011;10018;51.230;7.860;2023-03-25T08:53:57;9.00;;;1.80;;
19733;SDS011;10018;51.230;7.860;2023-03-25T08:56:22;6.23;;;1.73;;
19733;SDS011;10018;51.230;7.860;2023-03-25T08:58:48;7.57;;;1.97;;
19733;SDS011;10018;51.230;7.860;2023-03-25T09:01:13;7.07;;;2.20;;
19733;SDS011;10018;51.230;7.860;2023-03-25T09:03:39;9.33;;;2.00;;
19733;SDS011;10018;51.230;7.860;2023-03-25T09:06:05;7.87;;;2.00;;
19733;SDS011;10018;51.230;7.860;2023-03-25T09:08:31;7.17;;;2.10;;
19733;SDS011;10018;51.230;7.860;2023-03-25T09:10:57;6.70;;;1.93;;
19733;SDS011;10018;51.230;7.860;2023-03-25T09:13:23;8.33;;;2.20;;
19733;SDS011;10018;51.230;7.860;2023-03-25T09:15:51;7.00;;;1.97;;
19733;SDS011;10018;51.230;7.860;2023-03-25T09:18:16;8.53;;;2.00;;
19733;SDS011;10018;51.230;7.860;2023-03-25T09:20:42;9.33;;;2.10;;
19733;SDS011;10018;51.230;7.860;2023-03-25T09:23:11;9.37;;;2.33;;
19733;SDS011;10018;51.230;7.860;2023-03-25T09:25:37;7.37;;;1.87;;
19733;SDS011;10018;51.230;7.860;2023-03-25T09:28:02;8.87;;;2.13;;
19733;SDS011;10018;51.230;7.860;2023-03-25T09:30:28;9.33;;;2.50;;
19733;SDS011;10018;51.230;7.860;2023-03-25T09:32:54;8.47;;;2.43;;
19733;SDS011;10018;51.230;7.860;2023-03-25T09:35:22;9.47;;;2.37;;
19733;SDS011;10018;51.230;7.860;2023-03-25T09:37:47;7.57;;;2.13;;
19733;SDS011;10018;51.230;7.860;2023-03-25T09:40:15;8.60;;;2.63;;
19733;SDS011;10018;51.230;7.860;2023-03-25T09:45:44;6.63;;;2.17;;
19733;SDS011;10018;51.230;7.860;2023-03-25T09:48:30;6.40;;;2.00;;
19733;SDS011;10018;51.230;7.860;2023-03-25T09:51:08;7.93;;;2.23;;
19733;SDS011;10018;51.230;7.860;2023-03-25T09:53:47;10.23;;;2.70;;
19733;SDS011;10018;51.230;7.860;2023-03-25T09:56:20;11.07;;;2.47;;
19733;SDS011;10018;51.230;7.860;2023-03-25T09:58:50;5.73;;;2.27;;
19733;SDS011;10018;51.230;7.860;2023-03-25T10:01:20;11.10;;;2.00;;
19733;SDS011;10018;51.230;7.860;2023-03-25T10:09:51;7.13;;;2.23;;
19733;SDS011;10018;51.230;7.860;2023-03-25T10:12:34;6.03;;;2.20;;
19733;SDS011;10018;51.230;7.860;2023-03-25T10:15:25;11.27;;;2.30;;
19733;SDS011;10018;51.230;7.860;2023-03-25T10:26:14;9.20;;;2.47;;
19733;SDS011;10018;51.230;7.860;2023-03-25T10:28:50;11.47;;;3.10;;
19733;SDS011;10018;51.230;7.860;2023-03-25T10:31:21;10.30;;;2.80;;
19733;SDS011;10018;51.230;7.860;2023-03-25T10:33:55;11.47;;;3.00;;
19733;SDS011;10018;51.230;7.860;2023-03-25T10:37:08;12.20;;;2.70;;
19733;SDS011;10018;51.230;7.860;2023-03-25T10:39:19;13.77;;;2.60;;
19733;SDS011;10018;51.230;7.860;2023-03-25T10:41:47;11.07;;;2.60;;
19733;SDS011;10018;51.230;7.860;2023-03-25T10:44:19;10.93;;;2.63;;
19733;SDS011;10018;51.230;7.860;2023-03-25T10:46:49;8.03;;;2.60;;
19733;SDS011;10018;51.230;7.860;2023-03-25T10:49:30;13.27;;;2.30;;
19733;SDS011;10018;51.230;7.860;2023-03-25T10:51:57;11.07;;;2.43;;
19733;SDS011;10018;51.230;7.860;2023-03-25T10:54:28;12.57;;;2.50;;
19733;SDS011;10018;51.230;7.860;2023-03-25T10:57:14;9.03;;;2.20;;
19733;SDS011;10018;51.230;7.860;2023-03-25T11:02:43;7.73;;;2.10;;
19733;SDS011;10018;51.230;7.860;2023-03-25T11:05:11;12.27;;;2.30;;
19733;SDS011;10018;51.230;7.860;2023-03-25T11:07:42;8.47;;;1.93;;
19733;SDS011;10018;51.230;7.860;2023-03-25T11:12:38;7.80;;;2.40;;
19733;SDS011;10018;51.230;7.860;2023-03-25T11:15:42;7.17;;;1.97;;
19733;SDS011;10018;51.230;7.860;2023-03-25T11:20:46;8.30;;;1.90;;
19733;SDS011;10018;51.230;7.860;2023-03-25T11:23:30;8.63;;;2.40;;
19733;SDS011;10018;51.230;7.860;2023-03-25T11:26:01;8.57;;;1.47;;
19733;SDS011;10018;51.230;7.860;2023-03-25T11:28:36;7.43;;;1.40;;
19733;SDS011;10018;51.230;7.860;2023-03-25T11:33:45;6.83;;;1.60;;
19733;SDS011;10018;51.230;7.860;2023-03-25T11:36:29;5.10;;;1.53;;
19733;SDS011;10018;51.230;7.860;2023-03-25T11:39:00;7.63;;;1.80;;
19733;SDS011;10018;51.230;7.860;2023-03-25T11:41:35;6.73;;;1.90;;
19733;SDS011;10018;51.230;7.860;2023-03-25T11:44:02;9.70;;;1.77;;
19733;SDS011;10018;51.230;7.860;2023-03-25T11:46:29;10.53;;;2.83;;
19733;SDS011;10018;51.230;7.860;2023-03-25T11:48:55;11.47;;;2.33;;
19733;SDS011;10018;51.230;7.860;2023-03-25T11:51:25;7.60;;;1.90;;
19733;SDS011;10018;51.230;7.860;2023-03-25T11:53:57;9.23;;;1.80;;
19733;SDS011;10018;51.230;7.860;2023-03-25T11:56:36;12.40;;;2.20;;
19733;SDS011;10018;51.230;7.860;2023-03-25T11:59:25;14.80;;;2.20;;
19733;SDS011;10018;51.230;7.860;2023-03-25T12:02:00;10.97;;;1.97;;
19733;SDS011;10018;51.230;7.860;2023-03-25T12:04:37;8.87;;;1.93;;
19733;SDS011;10018;51.230;7.860;2023-03-25T12:07:14;14.63;;;2.43;;
19733;SDS011;10018;51.230;7.860;2023-03-25T12:09:52;11.60;;;2.00;;
19733;SDS011;10018;51.230;7.860;2023-03-25T12:26:17;6.00;;;1.60;;
19733;SDS011;10018;51.230;7.860;2023-03-25T12:40:28;6.30;;;1.60;;
19733;SDS011;10018;51.230;7.860;2023-03-25T12:43:14;9.03;;;1.70;;
19733;SDS011;10018;51.230;7.860;2023-03-25T12:52:24;8.23;;;1.90;;
19733;SDS011;10018;51.230;7.860;2023-03-25T13:05:29;7.97;;;1.77;;
19733;SDS011;10018;51.230;7.860;2023-03-25T13:08:20;7.63;;;1.80;;
19733;SDS011;10018;51.230;7.860;2023-03-25T13:10:54;10.47;;;2.20;;
19733;SDS011;10018;51.230;7.860;2023-03-25T13:13:24;9.53;;;2.47;;
19733;SDS011;10018;51.230;7.860;2023-03-25T13:16:06;10.13;;;2.07;;
19733;SDS011;10018;51.230;7.860;2023-03-25T13:18:46;10.80;;;2.60;;
19733;SDS011;10018;51.230;7.860;2023-03-25T13:21:20;12.20;;;2.40;;
19733;SDS011;10018;51.230;7.860;2023-03-25T13:24:11;11.73;;;2.67;;
19733;SDS011;10018;51.230;7.860;2023-03-25T13:26:41;10.17;;;1.93;;
19733;SDS011;10018;51.230;7.860;2023-03-25T13:32:05;10.93;;;2.43;;
19733;SDS011;10018;51.230;7.860;2023-03-25T13:34:43;8.77;;;2.60;;
19733;SDS011;10018;51.230;7.860;2023-03-25T13:37:33;9.93;;;2.67;;
19733;SDS011;10018;51.230;7.860;2023-03-25T13:40:16;12.10;;;2.70;;
19733;SDS011;10018;51.230;7.860;2023-03-25T13:43:06;16.20;;;2.90;;
19733;SDS011;10018;51.230;7.860;2023-03-25T13:48:35;13.47;;;2.90;;
19733;SDS011;10018;51.230;7.860;2023-03-25T13:51:06;16.00;;;2.80;;
19733;SDS011;10018;51.230;7.860;2023-03-25T13:53:37;15.93;;;2.77;;
19733;SDS011;10018;51.230;7.860;2023-03-25T14:01:32;16.50;;;2.63;;
19733;SDS011;10018;51.230;7.860;2023-03-25T14:12:53;13.00;;;2.60;;
19733;SDS011;10018;51.230;7.860;2023-03-25T14:15:33;13.27;;;2.50;;
19733;SDS011;10018;51.230;7.860;2023-03-25T14:18:02;21.40;;;2.93;;
19733;SDS011;10018;51.230;7.860;2023-03-25T14:20:32;13.97;;;2.30;;
19733;SDS011;10018;51.230;7.860;2023-03-25T14:23:02;16.03;;;2.67;;
19733;SDS011;10018;51.230;7.860;2023-03-25T14:25:46;3.63;;;1.00;;
19733;SDS011;10018;51.230;7.860;2023-03-25T14:39:10;4.27;;;1.13;;
19733;SDS011;10018;51.230;7.860;2023-03-25T14:41:55;4.40;;;0.77;;
19733;SDS011;10018;51.230;7.860;2023-03-25T14:44:26;7.87;;;1.10;;
19733;SDS011;10018;51.230;7.860;2023-03-25T14:47:24;3.13;;;0.60;;
19733;SDS011;10018;51.230;7.860;2023-03-25T14:52:54;3.53;;;0.77;;
19733;SDS011;10018;51.230;7.860;2023-03-25T14:57:57;3.77;;;1.00;;
19733;SDS011;10018;51.230;7.860;2023-03-25T15:00:27;2.87;;;1.00;;
19733;SDS011;10018;51.230;7.860;2023-03-25T15:03:07;4.57;;;1.00;;
19733;SDS011;10018;51.230;7.860;2023-03-25T15:05:38;4.00;;;1.30;;
19733;SDS011;10018;51.230;7.860;2023-03-25T15:10:40;3.37;;;1.33;;
19733;SDS011;10018;51.230;7.860;2023-03-25T15:13:28;4.50;;;2.00;;
19733;SDS011;10018;51.230;7.860;2023-03-25T15:16:01;8.80;;;2.30;;
19733;SDS011;10018;51.230;7.860;2023-03-25T15:21:08;12.13;;;2.73;;
19733;SDS011;10018;51.230;7.860;2023-03-25T15:26:03;7.90;;;3.50;;
19733;SDS011;10018;51.230;7.860;2023-03-25T15:31:27;9.27;;;3.37;;
19733;SDS011;10018;51.230;7.860;2023-03-25T15:34:09;14.17;;;3.63;;
19733;SDS011;10018;51.230;7.860;2023-03-25T15:39:34;8.90;;;4.70;;
19733;SDS011;10018;51.230;7.860;2023-03-25T15:53:38;11.27;;;5.00;;
19733;SDS011;10018;51.230;7.860;2023-03-25T15:56:15;16.50;;;5.27;;
19733;SDS011;10018;51.230;7.860;2023-03-25T15:59:16;11.60;;;4.93;;
19733;SDS011;10018;51.230;7.860;2023-03-25T16:01:42;14.40;;;5.83;;
19733;SDS011;10018;51.230;7.860;2023-03-25T16:06:47;4.70;;;2.53;;
19733;SDS011;10018;51.230;7.860;2023-03-25T16:09:17;6.70;;;2.40;;
19733;SDS011;10018;51.230;7.860;2023-03-25T16:11:48;6.43;;;2.57;;
19733;SDS011;10018;51.230;7.860;2023-03-25T16:14:21;8.60;;;3.20;;
19733;SDS011;10018;51.230;7.860;2023-03-25T16:16:50;8.07;;;3.50;;
19733;SDS011;10018;51.230;7.860;2023-03-25T16:19:20;6.87;;;3.43;;
19733;SDS011;10018;51.230;7.860;2023-03-25T16:22:04;8.67;;;3.63;;
19733;SDS011;10018;51.230;7.860;2023-03-25T16:24:49;17.23;;;2.67;;
19733;SDS011;10018;51.230;7.860;2023-03-25T16:27:34;6.30;;;2.77;;
19733;SDS011;10018;51.230;7.860;2023-03-25T16:30:27;6.17;;;2.53;;
19733;SDS011;10018;51.230;7.860;2023-03-25T16:35:36;6.37;;;2.10;;
19733;SDS011;10018;51.230;7.860;2023-03-25T16:38:04;6.27;;;1.87;;
19733;SDS011;10018;51.230;7.860;2023-03-25T16:40:39;6.73;;;1.57;;
19733;SDS011;10018;51.230;7.860;2023-03-25T16:45:45;8.93;;;3.00;;
19733;SDS011;10018;51.230;7.860;2023-03-25T16:48:16;17.87;;;5.73;;
19733;SDS011;10018;51.230;7.860;2023-03-25T16:50:46;11.33;;;3.00;;
19733;SDS011;10018;51.230;7.860;2023-03-25T16:53:14;7.63;;;1.60;;
19733;SDS011;10018;51.230;7.860;2023-03-25T16:55:42;8.77;;;2.37;;
19733;SDS011;10018;51.230;7.860;2023-03-25T16:58:15;10.03;;;2.00;;
19733;SDS011;10018;51.230;7.860;2023-03-25T17:00:42;5.37;;;1.37;;
19733;SDS011;10018;51.230;7.860;2023-03-25T17:03:13;10.30;;;2.77;;
19733;SDS011;10018;51.230;7.860;2023-03-25T17:05:51;6.57;;;1.70;;
19733;SDS011;10018;51.230;7.860;2023-03-25T17:08:20;9.73;;;2.00;;
19733;SDS011;10018;51.230;7.860;2023-03-25T17:10:47;6.20;;;2.00;;
19733;SDS011;10018;51.230;7.860;2023-03-25T17:13:18;8.20;;;2.37;;
19733;SDS011;10018;51.230;7.860;2023-03-25T17:15:49;10.93;;;3.37;;
19733;SDS011;10018;51.230;7.860;2023-03-25T17:18:15;9.40;;;2.17;;
19733;SDS011;10018;51.230;7.860;2023-03-25T17:20:43;9.00;;;2.70;;
19733;SDS011;10018;51.230;7.860;2023-03-25T17:34:13;7.27;;;1.70;;
19733;SDS011;10018;51.230;7.860;2023-03-25T17:36:45;5.80;;;2.00;;
19733;SDS011;10018;51.230;7.860;2023-03-25T17:39:22;8.37;;;2.00;;
19733;SDS011;10018;51.230;7.860;2023-03-25T17:41:54;11.33;;;3.03;;
19733;SDS011;10018;51.230;7.860;2023-03-25T17:44:22;8.73;;;1.93;;
19733;SDS011;10018;51.230;7.860;2023-03-25T17:46:55;9.20;;;2.30;;
19733;SDS011;10018;51.230;7.860;2023-03-25T17:49:21;7.67;;;1.63;;
19733;SDS011;10018;51.230;7.860;2023-03-25T17:51:47;6.07;;;1.70;;
19733;SDS011;10018;51.230;7.860;2023-03-25T17:54:13;8.53;;;1.63;;
19733;SDS011;10018;51.230;7.860;2023-03-25T17:56:39;7.63;;;1.67;;
19733;SDS011;10018;51.230;7.860;2023-03-25T17:59:15;6.03;;;1.83;;
19733;SDS011;10018;51.230;7.860;2023-03-25T18:01:43;8.17;;;3.07;;
19733;SDS011;10018;51.230;7.860;2023-03-25T18:04:10;10.33;;;1.60;;
19733;SDS011;10018;51.230;7.860;2023-03-25T18:06:36;7.07;;;2.43;;
19733;SDS011;10018;51.230;7.860;2023-03-25T18:09:02;14.23;;;7.67;;
19733;SDS011;10018;51.230;7.860;2023-03-25T18:11:28;7.07;;;2.00;;
19733;SDS011;10018;51.230;7.860;2023-03-25T18:13:54;4.87;;;1.87;;
19733;SDS011;10018;51.230;7.860;2023-03-25T18:16:20;8.37;;;2.93;;
19733;SDS011;10018;51.230;7.860;2023-03-25T18:18:46;8.63;;;1.53;;
19733;SDS011;10018;51.230;7.860;2023-03-25T18:21:13;8.17;;;1.90;;
19733;SDS011;10018;51.230;7.860;2023-03-25T18:23:40;7.10;;;1.70;;
19733;SDS011;10018;51.230;7.860;2023-03-25T18:26:11;7.97;;;1.60;;